createdAt,value
2022-10-04T00:01:50.082Z,62.06
2022-10-04T00:04:28.569Z,62.89
2022-10-04T00:07:03.125Z,62.75
2022-10-04T00:09:36.350Z,63.45
2022-10-04T00:12:06.022Z,63.37
2022-10-04T00:14:39.799Z,63.45
2022-10-04T00:17:19.705Z,62.82
2022-10-04T00:19:49.603Z,63.38
2022-10-04T00:22:21.691Z,63.22
2022-10-04T00:25:07.774Z,63.17
2022-10-04T00:27:36.904Z,62.97
2022-10-04T00:30:03.367Z,63.53
2022-10-04T00:32:39.415Z,63.12
2022-10-04T00:35:38.136Z,63.47
2022-10-04T00:38:07.382Z,63.44
2022-10-04T00:40:46.555Z,63.10
2022-10-04T00:43:18.058Z,63.42
2022-10-04T00:45:48.936Z,63.13
2022-10-04T00:48:34.035Z,62.51
2022-10-04T00:51:04.130Z,63.12
2022-10-04T00:53:59.980Z,62.90
2022-10-04T00:56:30.210Z,63.14
2022-10-04T00:58:57.463Z,62.05
2022-10-04T01:01:27.835Z,61.23
2022-10-04T01:03:57.930Z,61.53
2022-10-04T01:06:26.442Z,61.14
2022-10-04T01:08:56.437Z,60.21
2022-10-04T01:11:28.576Z,60.67
2022-10-04T01:14:01.948Z,60.88
2022-10-04T01:16:33.481Z,59.71
2022-10-04T01:19:38.821Z,60.45
2022-10-04T01:22:05.307Z,59.79
2022-10-04T01:24:37.458Z,60.01
2022-10-04T01:27:24.390Z,59.49
2022-10-04T01:29:51.829Z,60.14
2022-10-04T01:32:18.490Z,60.05
2022-10-04T01:34:45.068Z,59.71
2022-10-04T01:37:11.679Z,59.95
2022-10-04T01:39:38.256Z,60.25
2022-10-04T01:42:15.376Z,60.38
2022-10-04T01:44:51.709Z,59.35
2022-10-04T01:47:31.202Z,60.23
2022-10-04T01:50:02.814Z,59.79
2022-10-04T01:52:43.523Z,60.95
2022-10-04T01:55:21.387Z,60.16
2022-10-04T01:57:54.999Z,59.24
2022-10-04T02:00:22.322Z,59.08
2022-10-04T02:03:01.666Z,59.51
2022-10-04T02:05:39.251Z,60.06
2022-10-04T02:08:10.498Z,60.24
2022-10-04T02:10:43.525Z,60.24
2022-10-04T02:13:14.615Z,59.96
2022-10-04T02:15:42.218Z,59.62
2022-10-04T02:18:14.684Z,60.11
2022-10-04T02:20:42.918Z,60.62
2022-10-04T02:23:11.163Z,60.10
2022-10-04T02:25:38.793Z,60.17
2022-10-04T02:28:10.781Z,59.96
2022-10-04T02:30:40.354Z,59.74
2022-10-04T02:33:07.142Z,59.99
2022-10-04T02:35:37.684Z,59.44
2022-10-04T02:38:15.082Z,59.86
2022-10-04T02:41:05.985Z,59.67
2022-10-04T02:43:40.314Z,60.57
2022-10-04T02:46:17.823Z,60.03
2022-10-04T02:48:51.890Z,60.08
2022-10-04T02:51:25.772Z,60.03
2022-10-04T02:54:18.766Z,60.44
2022-10-04T02:56:45.694Z,60.29
2022-10-04T02:59:16.520Z,60.03
2022-10-04T03:01:57.815Z,60.00
2022-10-04T03:04:39.051Z,59.71
2022-10-04T03:07:08.629Z,59.68
2022-10-04T03:09:38.150Z,60.34
2022-10-04T03:12:05.857Z,60.47
2022-10-04T03:14:33.339Z,60.45
2022-10-04T03:17:04.176Z,61.02
2022-10-04T03:19:32.565Z,60.92
2022-10-04T03:22:03.222Z,61.05
2022-10-04T03:24:47.088Z,60.30
2022-10-04T03:27:42.588Z,60.63
2022-10-04T03:30:14.176Z,61.04
2022-10-04T03:32:42.008Z,61.31
2022-10-04T03:35:29.060Z,60.93
2022-10-04T03:37:58.149Z,60.85
2022-10-04T03:40:29.274Z,60.86
2022-10-04T03:42:57.904Z,61.92
2022-10-04T03:45:28.458Z,62.36
2022-10-04T03:48:01.116Z,61.58
2022-10-04T03:50:35.450Z,61.33
2022-10-04T03:53:09.838Z,62.04
2022-10-04T03:55:42.154Z,62.12
2022-10-04T03:58:12.792Z,61.67
2022-10-04T04:00:55.274Z,61.67
2022-10-04T04:03:22.828Z,61.58
2022-10-04T04:05:59.919Z,61.32
2022-10-04T04:08:33.442Z,61.81
2022-10-04T04:11:03.115Z,60.94
2022-10-04T04:13:31.714Z,61.14
2022-10-04T04:16:01.859Z,60.19
2022-10-04T04:18:32.984Z,60.27
2022-10-04T04:21:03.061Z,60.33
2022-10-04T04:23:34.258Z,61.54
2022-10-04T04:26:11.848Z,60.88
2022-10-04T04:29:04.548Z,61.33
2022-10-04T04:31:42.879Z,60.68
2022-10-04T04:34:25.410Z,61.58
2022-10-04T04:36:57.044Z,60.74
2022-10-04T04:39:45.246Z,62.08
2022-10-04T04:42:33.186Z,62.17
2022-10-04T04:45:03.746Z,61.45
2022-10-04T04:47:44.232Z,61.66
2022-10-04T04:50:18.579Z,62.53
2022-10-04T04:52:50.213Z,62.03
2022-10-04T04:56:03.962Z,61.64
2022-10-04T04:58:38.720Z,62.58
2022-10-04T05:01:07.365Z,62.15
2022-10-04T05:03:34.220Z,62.23
2022-10-04T05:06:04.749Z,61.92
2022-10-04T05:08:37.203Z,62.08
2022-10-04T05:11:09.606Z,61.40
2022-10-04T05:14:08.262Z,60.29
2022-10-04T05:16:45.320Z,60.41
2022-10-04T05:19:36.938Z,60.58
2022-10-04T05:22:13.420Z,61.18
2022-10-04T05:24:45.913Z,60.27
2022-10-04T05:27:17.455Z,59.21
2022-10-04T05:30:04.247Z,58.82
2022-10-04T05:32:56.760Z,58.44
2022-10-04T05:35:23.816Z,59.13
2022-10-04T05:38:26.607Z,58.27
2022-10-04T05:41:01.714Z,59.48
2022-10-04T05:43:57.554Z,59.19
2022-10-04T05:46:24.099Z,59.11
2022-10-04T05:48:55.357Z,58.11
2022-10-04T05:51:30.357Z,57.48
2022-10-04T05:54:02.960Z,58.54
2022-10-04T05:56:41.704Z,57.17
2022-10-04T05:59:38.936Z,57.41
2022-10-04T06:02:24.208Z,58.13
2022-10-04T06:05:08.246Z,57.71
2022-10-04T06:08:20.960Z,56.99
2022-10-04T06:10:52.289Z,58.33
2022-10-04T06:13:40.283Z,57.63
2022-10-04T06:16:20.169Z,57.09
2022-10-04T06:19:27.811Z,56.48
2022-10-04T06:22:19.096Z,57.63
2022-10-04T06:25:05.276Z,56.54
2022-10-04T06:27:41.802Z,57.17
2022-10-04T06:30:19.390Z,57.39
2022-10-04T06:33:34.221Z,57.19
2022-10-04T06:36:23.182Z,56.48
2022-10-04T06:39:05.122Z,56.61
2022-10-04T06:42:04.840Z,56.36
2022-10-04T06:44:37.833Z,55.67
2022-10-04T06:47:20.777Z,56.04
2022-10-04T06:49:59.249Z,55.73
2022-10-04T06:52:29.770Z,55.81
2022-10-04T06:55:24.313Z,55.61
2022-10-04T06:58:00.330Z,56.21
2022-10-04T07:00:29.190Z,55.84
2022-10-04T07:03:03.421Z,55.43
2022-10-04T07:05:32.945Z,55.73
2022-10-04T07:08:34.101Z,55.39
2022-10-04T07:11:12.407Z,54.68
2022-10-04T07:13:40.329Z,55.92
2022-10-04T07:16:09.867Z,55.83
2022-10-04T07:18:42.300Z,55.27
2022-10-04T07:21:13.567Z,55.61
2022-10-04T07:23:53.379Z,55.54
2022-10-04T07:26:29.016Z,55.54
2022-10-04T07:29:19.983Z,55.68
2022-10-04T07:31:51.394Z,56.45
2022-10-04T07:34:25.691Z,55.56
2022-10-04T07:36:57.166Z,55.30
2022-10-04T07:39:34.406Z,54.97
2022-10-04T07:42:22.051Z,55.27
2022-10-04T07:45:03.484Z,55.35
2022-10-04T07:47:31.910Z,55.35
2022-10-04T07:49:58.543Z,54.69
2022-10-04T07:52:40.310Z,54.82
2022-10-04T07:55:18.602Z,54.57
2022-10-04T07:58:00.713Z,53.96
2022-10-04T08:00:52.602Z,52.79
2022-10-04T08:03:37.299Z,54.17
2022-10-04T08:06:31.050Z,53.67
2022-10-04T08:09:10.694Z,52.26
2022-10-04T08:12:09.065Z,52.54
2022-10-04T08:14:53.820Z,52.19
2022-10-04T08:17:53.650Z,51.88
2022-10-04T08:20:23.018Z,51.98
2022-10-04T08:23:09.990Z,50.84
2022-10-04T08:25:50.514Z,52.22
2022-10-04T08:28:49.135Z,51.63
2022-10-04T08:31:21.541Z,52.13
2022-10-04T08:33:53.986Z,51.20
2022-10-04T08:36:39.577Z,49.77
2022-10-04T08:39:26.479Z,51.12
2022-10-04T08:42:17.536Z,49.26
2022-10-04T08:45:12.238Z,51.08
2022-10-04T08:48:29.232Z,48.13
2022-10-04T08:51:13.090Z,48.76
2022-10-04T08:54:00.013Z,48.16
2022-10-04T08:57:04.686Z,48.92
2022-10-04T09:00:08.198Z,49.29
2022-10-04T09:03:05.144Z,48.99
2022-10-04T09:05:54.043Z,49.19
2022-10-04T09:08:39.401Z,47.95
2022-10-04T09:11:41.450Z,48.96
2022-10-04T09:14:23.502Z,48.79
2022-10-04T09:17:21.149Z,47.84
2022-10-04T09:20:33.315Z,48.32
2022-10-04T09:23:08.759Z,48.19
2022-10-04T09:25:51.650Z,46.98
2022-10-04T09:28:43.468Z,47.91
2022-10-04T09:31:35.145Z,47.86
2022-10-04T09:34:04.783Z,47.25
2022-10-04T09:36:34.172Z,47.78
2022-10-04T09:39:29.380Z,47.89
2022-10-04T09:42:15.633Z,47.15
2022-10-04T09:45:21.716Z,46.72
2022-10-04T09:48:16.174Z,46.18
2022-10-04T09:51:08.270Z,46.13
2022-10-04T09:53:49.369Z,46.96
2022-10-04T09:56:47.115Z,45.71
2022-10-04T09:59:43.100Z,46.67
2022-10-04T10:02:29.166Z,46.61
2022-10-04T10:05:11.407Z,45.70
2022-10-04T10:08:15.408Z,45.60
2022-10-04T10:11:09.955Z,45.75
2022-10-04T10:13:55.035Z,46.48
2022-10-04T10:16:30.450Z,46.68
2022-10-04T10:19:15.520Z,46.50
2022-10-04T10:21:52.260Z,46.04
2022-10-04T10:24:58.135Z,46.52
2022-10-04T10:27:58.998Z,45.68
2022-10-04T10:30:34.545Z,45.83
2022-10-04T10:33:06.759Z,46.34
2022-10-04T10:36:07.763Z,45.84
2022-10-04T10:38:50.867Z,44.88
2022-10-04T10:41:35.957Z,45.39
2022-10-04T10:44:39.736Z,44.90
2022-10-04T10:47:45.450Z,44.14
2022-10-04T10:51:00.174Z,43.50
2022-10-04T10:53:44.038Z,44.62
2022-10-04T10:56:13.227Z,44.17
2022-10-04T10:58:58.023Z,42.37
2022-10-04T11:01:39.506Z,43.90
2022-10-04T11:04:09.097Z,43.70
2022-10-04T11:07:18.466Z,42.65
2022-10-04T11:10:32.868Z,41.59
2022-10-04T11:13:21.639Z,43.87
2022-10-04T11:16:26.598Z,43.24
2022-10-04T11:19:16.116Z,42.82
2022-10-04T11:22:19.719Z,41.74
2022-10-04T11:25:04.681Z,42.08
2022-10-04T11:27:49.366Z,41.07
2022-10-04T11:30:26.513Z,42.12
2022-10-04T11:33:21.813Z,41.73
2022-10-04T11:35:48.264Z,41.58
2022-10-04T11:38:52.367Z,40.88
2022-10-04T11:41:34.798Z,39.92
2022-10-04T11:44:35.355Z,40.71
2022-10-04T11:47:28.706Z,41.31
2022-10-04T11:50:25.676Z,42.11
2022-10-04T11:52:52.307Z,43.38
2022-10-04T11:55:31.277Z,42.56
2022-10-04T11:58:14.619Z,42.84
2022-10-04T12:01:01.778Z,41.14
2022-10-04T12:03:48.718Z,41.42
2022-10-04T12:06:37.270Z,40.48
2022-10-04T12:09:23.579Z,41.15
2022-10-04T12:12:37.360Z,40.49
2022-10-04T12:15:19.009Z,40.01
2022-10-04T12:18:07.285Z,40.31
2022-10-04T12:20:59.378Z,40.68
2022-10-04T12:23:53.322Z,39.23
2022-10-04T12:26:33.004Z,39.88
2022-10-04T12:29:20.868Z,40.12
2022-10-04T12:32:29.066Z,40.25
2022-10-04T12:35:20.638Z,38.74
2022-10-04T12:38:08.824Z,38.98
2022-10-04T12:41:03.254Z,38.22
2022-10-04T12:43:40.841Z,37.82
2022-10-04T12:46:22.444Z,36.14
2022-10-04T12:49:27.706Z,37.20
2022-10-04T12:52:15.662Z,37.46
2022-10-04T12:54:45.272Z,39.03
2022-10-04T12:57:17.476Z,39.55
2022-10-04T13:00:14.787Z,38.04
2022-10-04T13:02:53.370Z,39.27
2022-10-04T13:05:22.697Z,39.28
2022-10-04T13:08:16.963Z,39.89
2022-10-04T13:10:59.791Z,39.63
2022-10-04T13:13:53.519Z,37.40
2022-10-04T13:20:04.680Z,39.75
2022-10-04T13:23:27.887Z,38.80
2022-10-04T13:26:05.477Z,40.21
2022-10-04T13:29:01.938Z,40.88
2022-10-04T13:31:44.691Z,41.37
2022-10-04T13:34:28.232Z,40.64
2022-10-04T13:37:18.012Z,39.96
2022-10-04T13:40:03.413Z,38.97
2022-10-04T13:42:55.975Z,39.73
2022-10-04T13:45:42.428Z,40.06
2022-10-04T13:48:24.188Z,39.97
2022-10-04T13:51:26.032Z,38.66
2022-10-04T13:54:36.817Z,39.03
2022-10-04T13:57:23.094Z,40.74
2022-10-04T14:00:02.582Z,40.73
2022-10-04T14:02:35.155Z,41.22
2022-10-04T14:05:29.829Z,41.93
2022-10-04T14:08:30.130Z,41.99
2022-10-04T14:11:20.606Z,42.56
2022-10-04T14:14:00.406Z,42.16
2022-10-04T14:17:05.178Z,41.07
2022-10-04T14:20:00.918Z,41.41
2022-10-04T14:23:12.541Z,41.80
2022-10-04T14:26:25.058Z,39.55
2022-10-04T14:29:04.372Z,40.96
2022-10-04T14:32:07.925Z,40.42
2022-10-04T14:34:37.296Z,41.24
2022-10-04T14:37:23.516Z,41.82
2022-10-04T14:40:08.978Z,42.50
2022-10-04T14:42:45.027Z,42.71
2022-10-04T14:45:40.422Z,42.63
2022-10-04T14:48:24.229Z,42.42
2022-10-04T14:51:22.746Z,43.16
2022-10-04T14:54:29.047Z,42.87
2022-10-04T14:57:13.924Z,42.93
2022-10-04T14:59:51.371Z,43.57
2022-10-04T15:02:27.142Z,43.08
2022-10-04T15:05:08.358Z,43.06
2022-10-04T15:07:39.239Z,44.08
2022-10-04T15:10:13.508Z,43.79
2022-10-04T15:13:20.244Z,43.57
2022-10-04T15:15:46.782Z,43.99
2022-10-04T15:18:44.188Z,44.11
2022-10-04T15:21:46.295Z,44.23
2022-10-04T15:24:15.560Z,44.79
2022-10-04T15:26:58.648Z,44.26
2022-10-04T15:30:16.388Z,44.01
2022-10-04T15:32:42.902Z,45.37
2022-10-04T15:35:46.389Z,45.21
2022-10-04T15:38:32.675Z,45.74
2022-10-04T15:41:17.944Z,46.13
2022-10-04T15:44:07.674Z,46.52
2022-10-04T15:46:43.840Z,46.23
2022-10-04T15:49:47.098Z,46.75
2022-10-04T15:52:40.925Z,47.54
2022-10-04T15:55:19.451Z,47.31
2022-10-04T15:57:45.933Z,48.07
2022-10-04T16:00:28.890Z,48.42
2022-10-04T16:02:55.641Z,48.51
2022-10-04T16:05:41.705Z,48.92
2022-10-04T16:08:13.747Z,49.89
2022-10-04T16:11:11.072Z,51.83
2022-10-04T16:13:56.856Z,51.01
2022-10-04T16:16:29.400Z,51.62
2022-10-04T16:19:17.458Z,53.93
2022-10-04T16:21:50.024Z,52.95
2022-10-04T16:24:22.270Z,55.31
2022-10-04T16:26:51.275Z,54.20
2022-10-04T16:29:35.810Z,56.37
2022-10-04T16:32:14.230Z,57.41
2022-10-04T16:34:45.331Z,58.15
2022-10-04T16:37:23.650Z,58.96
2022-10-04T16:39:59.532Z,59.92
2022-10-04T16:42:44.469Z,60.56
2022-10-04T16:45:11.839Z,59.38
2022-10-04T16:47:41.091Z,61.23
2022-10-04T16:50:13.074Z,61.43
2022-10-04T16:52:54.576Z,63.21
2022-10-04T16:55:56.056Z,63.16
2022-10-04T16:58:28.678Z,63.82
2022-10-04T17:01:25.937Z,63.71
2022-10-04T17:04:04.855Z,64.32
2022-10-04T17:06:56.635Z,63.46
2022-10-04T17:09:31.914Z,63.50
2022-10-04T17:12:17.390Z,63.25
2022-10-04T17:15:20.494Z,61.77
2022-10-04T17:17:56.286Z,60.94
2022-10-04T17:20:40.789Z,60.73
2022-10-04T17:23:25.292Z,60.62
2022-10-04T17:26:11.866Z,61.67
2022-10-04T17:29:16.097Z,62.29
2022-10-04T17:31:57.700Z,61.87
2022-10-04T17:34:39.211Z,61.66
2022-10-04T17:37:11.769Z,62.10
2022-10-04T17:39:44.439Z,62.20
2022-10-04T17:42:45.994Z,63.82
2022-10-04T17:45:46.778Z,64.99
2022-10-04T17:48:51.057Z,65.72
2022-10-04T17:51:39.165Z,65.40
2022-10-04T17:54:35.008Z,66.58
2022-10-04T17:57:04.193Z,65.98
2022-10-04T17:59:40.743Z,66.22
2022-10-04T18:02:17.559Z,66.66
2022-10-04T18:05:15.473Z,67.07
2022-10-04T18:07:48.609Z,67.25
2022-10-04T18:10:41.214Z,68.08
2022-10-04T18:13:21.584Z,68.09
2022-10-04T18:16:01.256Z,68.16
2022-10-04T18:18:36.917Z,68.50
2022-10-04T18:21:05.426Z,68.36
2022-10-04T18:23:39.548Z,68.55
2022-10-04T18:26:17.599Z,68.64
2022-10-04T18:28:45.773Z,68.19
2022-10-04T18:31:29.471Z,68.24
2022-10-04T18:34:01.295Z,68.04
2022-10-04T18:36:33.448Z,67.60
2022-10-04T18:39:12.295Z,67.82
2022-10-04T18:41:55.144Z,68.08
2022-10-04T18:44:28.836Z,68.04
2022-10-04T18:46:57.142Z,70.69
2022-10-04T18:49:27.852Z,69.07
2022-10-04T18:52:09.420Z,68.90
2022-10-04T18:54:57.688Z,69.01
2022-10-04T18:57:58.938Z,69.56
2022-10-04T19:00:53.609Z,69.21
2022-10-04T19:03:41.338Z,69.23
2022-10-04T19:06:19.368Z,69.68
2022-10-04T19:09:10.933Z,69.13
2022-10-04T19:12:05.034Z,69.23
2022-10-04T19:14:34.226Z,68.96
2022-10-04T19:17:07.522Z,69.12
2022-10-04T19:19:57.142Z,69.68
2022-10-04T19:22:44.617Z,72.24
2022-10-04T19:25:34.049Z,72.01
2022-10-04T19:28:12.631Z,70.28
2022-10-04T19:30:54.110Z,70.61
2022-10-04T19:33:28.824Z,69.81
2022-10-04T19:36:07.879Z,70.51
2022-10-04T19:38:52.101Z,70.03
2022-10-04T19:41:31.801Z,70.37
2022-10-04T19:44:01.375Z,70.38
2022-10-04T19:46:44.089Z,71.56
2022-10-04T19:49:34.941Z,71.73
2022-10-04T19:52:22.302Z,72.40
2022-10-04T19:54:57.558Z,71.43
2022-10-04T19:57:37.286Z,71.42
2022-10-04T20:00:11.451Z,70.83
2022-10-04T20:02:38.538Z,70.63
2022-10-04T20:05:15.852Z,71.73
2022-10-04T20:07:49.501Z,72.14
2022-10-04T20:10:18.886Z,73.01
2022-10-04T20:13:24.940Z,73.30
2022-10-04T20:15:53.502Z,73.67
2022-10-04T20:18:32.142Z,73.50
2022-10-04T20:21:00.173Z,73.40
2022-10-04T20:23:39.074Z,74.50
2022-10-04T20:26:07.978Z,72.96
2022-10-04T20:28:38.641Z,74.44
2022-10-04T20:31:08.056Z,73.47
2022-10-04T20:33:34.497Z,73.11
2022-10-04T20:36:06.132Z,72.86
2022-10-04T20:38:59.358Z,74.56
2022-10-04T20:41:28.959Z,74.10
2022-10-04T20:43:58.117Z,73.83
2022-10-04T20:46:26.814Z,73.37
2022-10-04T20:48:54.996Z,73.23
2022-10-04T20:51:23.557Z,73.05
2022-10-04T20:53:53.092Z,74.17
2022-10-04T20:56:26.532Z,74.81
2022-10-04T20:58:59.616Z,73.79
2022-10-04T21:01:38.142Z,74.34
2022-10-04T21:04:19.760Z,77.09
2022-10-04T21:06:57.719Z,76.34
2022-10-04T21:09:25.352Z,76.15
2022-10-04T21:11:53.282Z,74.98
2022-10-04T21:14:30.748Z,75.66
2022-10-04T21:17:02.999Z,74.45
2022-10-04T21:19:32.629Z,75.01
2022-10-04T21:22:01.144Z,76.90
2022-10-04T21:24:35.946Z,77.66
2022-10-04T21:27:03.803Z,76.08
2022-10-04T21:29:30.747Z,76.76
2022-10-04T21:32:00.307Z,76.97
2022-10-04T21:34:51.509Z,77.23
2022-10-04T21:37:14.814Z,76.84
2022-10-04T21:39:41.621Z,76.97
2022-10-04T21:42:08.184Z,77.32
2022-10-04T21:44:34.948Z,76.08
2022-10-04T21:47:01.474Z,75.40
2022-10-04T21:49:27.992Z,76.00
2022-10-04T21:51:54.494Z,75.91
2022-10-04T21:54:21.003Z,77.04
2022-10-04T21:56:48.129Z,77.06
2022-10-04T21:59:14.974Z,76.80
2022-10-04T22:01:41.488Z,76.84
2022-10-04T22:04:08.072Z,76.44
2022-10-04T22:07:25.607Z,77.45
2022-10-04T22:09:52.087Z,76.44
2022-10-04T22:12:18.596Z,76.18
2022-10-04T22:15:54.988Z,76.52
2022-10-04T22:18:21.518Z,76.60
2022-10-04T22:20:48.023Z,75.70
2022-10-04T22:23:25.881Z,76.33
2022-10-04T22:25:53.327Z,75.17
2022-10-04T22:28:30.471Z,75.42
2022-10-04T22:30:57.204Z,74.88
2022-10-04T22:33:38.584Z,75.62
2022-10-04T22:36:19.388Z,75.54
2022-10-04T22:38:56.420Z,75.58
2022-10-04T22:41:26.423Z,75.30
2022-10-04T22:43:56.380Z,75.43
2022-10-04T22:46:28.023Z,75.10
2022-10-04T22:48:54.514Z,75.83
2022-10-04T22:51:21.044Z,75.58
2022-10-04T22:53:47.972Z,75.56
2022-10-04T22:56:15.124Z,76.11
2022-10-04T22:58:42.701Z,76.34
2022-10-04T23:01:17.982Z,75.87
2022-10-04T23:03:49.258Z,75.27
2022-10-04T23:06:16.185Z,75.48
2022-10-04T23:08:43.584Z,76.37
2022-10-04T23:11:10.726Z,75.28
2022-10-04T23:13:37.804Z,76.12
2022-10-04T23:16:14.260Z,76.31
2022-10-04T23:18:41.528Z,75.38
2022-10-04T23:21:22.180Z,75.61
2022-10-04T23:23:50.338Z,75.24
2022-10-04T23:26:23.632Z,74.46
2022-10-04T23:28:51.597Z,74.26
2022-10-04T23:31:26.296Z,74.83
2022-10-04T23:33:57.029Z,74.79
2022-10-04T23:36:24.139Z,73.52
2022-10-04T23:39:01.746Z,74.22
2022-10-04T23:41:28.832Z,73.72
2022-10-04T23:43:55.441Z,73.01
2022-10-04T23:46:24.526Z,73.63
2022-10-04T23:48:51.023Z,73.35
2022-10-04T23:51:19.923Z,72.93
2022-10-04T23:53:49.791Z,73.94
2022-10-04T23:56:23.523Z,73.28
2022-10-04T23:58:51.262Z,73.58
